KAGS/AGS METAR and TAF weather

Enter ICAO airport designator
Station Type Date Time Source
KAGS METAR 2019/07/15 19:53 UTC NOAA

KAGS 151953Z 36007KT 10SM BKN070 33/22 A3006 RMK AO2 LTG DSNT E AND SE SLP178 T03280222


Station Type Date Time Source
KAGS Decoded METAR 2019/07/15 19:53 UTC NOAA

AUGUSTA BUSH FIELD, GA, United States (KAGS) 33-22N 081-58W 44M
Jul 15, 2019 - 03:53 PM EDT / 2019.07.15 1953 UTC
Wind: from the N (360 degrees) at 8 MPH (7 KT):0
Visibility: 10 mile(s):0
Sky conditions: mostly cloudy
Weather: Lightning observed
Temperature: 91.0 F (32.8 C)
Heat index: 98.1 F (36.7 C):1
Dew Point: 72.0 F (22.2 C)
Relative Humidity: 53%
Pressure (altimeter): 30.06 in. Hg (1017 hPa)
ob: KAGS 151953Z 36007KT 10SM BKN070 33/22 A3006 RMK AO2 LTG DSNT E AND SE SLP178 T03280222
cycle: 20

Station Type Date Time Source
KAGS TAF 2019/07/15 18:34 UTC NOAA

TAF KAGS 151732Z 1518/1618 VRB05KT P6SM SCT040
FM160000 VRB03KT P6SM BKN250

Example: see airport list